createdAt,value
2022-10-23T00:00:50.955Z,101249.91
2022-10-23T00:03:23.865Z,101242.94
2022-10-23T00:05:53.930Z,101248.19
2022-10-23T00:08:25.925Z,101238.66
2022-10-23T00:10:52.858Z,101230.78
2022-10-23T00:13:22.673Z,101218.81
2022-10-23T00:15:49.619Z,101234.28
2022-10-23T00:18:19.246Z,101230.78
2022-10-23T00:20:57.292Z,101230.84
2022-10-23T00:23:46.987Z,101232.56
2022-10-23T00:26:21.697Z,101230.00
2022-10-23T00:28:59.897Z,101222.16
2022-10-23T00:31:31.450Z,101220.50
2022-10-23T00:34:00.255Z,101230.91
2022-10-23T00:36:27.418Z,101223.97
2022-10-23T00:38:54.498Z,101229.19
2022-10-23T00:41:37.514Z,101224.84
2022-10-23T00:44:20.642Z,101231.78
2022-10-23T00:46:52.376Z,101229.16
2022-10-23T00:49:29.172Z,101222.22
2022-10-23T00:52:23.263Z,101214.47
2022-10-23T00:54:51.163Z,101208.41
2022-10-23T00:57:18.144Z,101204.97
2022-10-23T00:59:48.266Z,101200.63
2022-10-23T01:02:24.699Z,101206.69
2022-10-23T01:04:54.462Z,101202.47
2022-10-23T01:07:45.589Z,101211.09
2022-10-23T01:10:39.209Z,101205.06
2022-10-23T01:13:49.975Z,101204.22
2022-10-23T01:16:41.298Z,101201.63
2022-10-23T01:19:29.301Z,101202.59
2022-10-23T01:22:19.418Z,101205.91
2022-10-23T01:25:12.403Z,101203.31
2022-10-23T01:28:01.232Z,101200.69
2022-10-23T01:30:32.272Z,101187.00
2022-10-23T01:33:33.421Z,101198.94
2022-10-23T01:36:14.253Z,101193.81
2022-10-23T01:39:23.838Z,101182.47
2022-10-23T01:42:31.376Z,101177.28
2022-10-23T01:45:48.291Z,101172.06
2022-10-23T01:48:48.870Z,101167.78
2022-10-23T01:54:29.099Z,101168.63
2022-10-23T01:57:25.726Z,101173.00
2022-10-23T02:00:16.380Z,101172.09
2022-10-23T02:03:08.062Z,101158.28
2022-10-23T02:05:43.797Z,101153.91
2022-10-23T02:08:11.160Z,101140.09
2022-10-23T02:10:47.232Z,101136.63
2022-10-23T02:13:27.157Z,101147.88
2022-10-23T02:16:31.768Z,101147.03
2022-10-23T02:19:06.856Z,101141.00
2022-10-23T02:22:09.309Z,101132.28
2022-10-23T02:25:02.298Z,101130.59
2022-10-23T02:28:08.427Z,101134.97
2022-10-23T02:30:44.227Z,101133.28
2022-10-23T02:33:12.854Z,101123.78
2022-10-23T02:35:48.884Z,101122.03
2022-10-23T02:38:41.627Z,101111.63
2022-10-23T02:41:47.692Z,101104.72
2022-10-23T02:44:47.270Z,101109.91
2022-10-23T02:48:05.985Z,101102.19
2022-10-23T02:51:20.081Z,101103.94
2022-10-23T02:54:24.899Z,101106.50
2022-10-23T02:57:20.218Z,101100.38
2022-10-23T03:00:08.783Z,101106.47
2022-10-23T03:02:44.467Z,101102.97
2022-10-23T03:05:31.859Z,101098.59
2022-10-23T03:08:00.782Z,101098.59
2022-10-23T03:10:28.600Z,101093.41
2022-10-23T03:12:59.919Z,101096.84
2022-10-23T03:15:31.093Z,101092.50
2022-10-23T03:18:02.208Z,101086.38
2022-10-23T03:20:29.298Z,101076.03
2022-10-23T03:23:01.768Z,101068.28
2022-10-23T03:25:35.032Z,101063.09
2022-10-23T03:28:01.982Z,101053.63
2022-10-23T03:30:28.856Z,101063.94
2022-10-23T03:32:59.001Z,101038.94
2022-10-23T03:35:30.437Z,101045.75
2022-10-23T03:38:00.320Z,101037.94
2022-10-23T03:40:28.815Z,101044.06
2022-10-23T03:42:55.770Z,101044.06
2022-10-23T03:45:26.564Z,101042.31
2022-10-23T03:47:58.557Z,101047.50
2022-10-23T03:50:26.206Z,101049.22
2022-10-23T03:52:54.623Z,101046.63
2022-10-23T03:55:22.126Z,101052.63
2022-10-23T03:57:48.956Z,101053.47
2022-10-23T04:00:22.227Z,101059.59
2022-10-23T04:02:55.123Z,101059.59
2022-10-23T04:05:27.220Z,101056.97
2022-10-23T04:07:54.639Z,101057.03
2022-10-23T04:10:21.896Z,101047.47
2022-10-23T04:12:51.212Z,101046.66
2022-10-23T04:15:27.708Z,101050.09
2022-10-23T04:17:57.914Z,101040.63
2022-10-23T04:20:25.459Z,101044.06
2022-10-23T04:22:52.415Z,101038.84
2022-10-23T04:25:22.450Z,101040.53
2022-10-23T04:27:57.395Z,101037.16
2022-10-23T04:30:24.774Z,101036.31
2022-10-23T04:32:52.315Z,101038.94
2022-10-23T04:35:20.309Z,101027.69
2022-10-23T04:37:47.291Z,101016.56
2022-10-23T04:40:14.414Z,101029.44
2022-10-23T04:42:41.652Z,101029.44
2022-10-23T04:45:09.451Z,101026.84
2022-10-23T04:47:36.400Z,101014.78
2022-10-23T04:50:03.911Z,101019.91
2022-10-23T04:52:30.847Z,101013.06
2022-10-23T04:54:57.725Z,101001.84
2022-10-23T04:57:24.745Z,101008.63
2022-10-23T04:59:51.605Z,100999.13
2022-10-23T05:02:18.603Z,100994.84
2022-10-23T05:04:45.438Z,101000.84
2022-10-23T05:07:12.411Z,101006.00
2022-10-23T05:09:39.324Z,100992.25
2022-10-23T05:12:06.447Z,101004.28
2022-10-23T05:14:33.363Z,100988.84
2022-10-23T05:17:09.199Z,101006.94
2022-10-23T05:19:44.342Z,100998.28
2022-10-23T05:22:13.111Z,100981.00
2022-10-23T05:24:40.525Z,100988.69
2022-10-23T05:27:07.452Z,100984.38
2022-10-23T05:29:34.323Z,100984.31
2022-10-23T05:32:05.350Z,100977.41
2022-10-23T05:34:34.803Z,100967.84
2022-10-23T05:37:07.753Z,100970.38
2022-10-23T05:39:35.227Z,100962.66
2022-10-23T05:42:02.459Z,100961.66
2022-10-23T05:44:29.374Z,100961.72
2022-10-23T05:46:56.262Z,100954.78
2022-10-23T05:49:26.264Z,100960.72
2022-10-23T05:51:53.391Z,100959.06
2022-10-23T05:54:20.247Z,100960.81
2022-10-23T05:56:47.202Z,100953.22
2022-10-23T05:59:14.722Z,100954.84
2022-10-23T06:01:43.841Z,100945.44
2022-10-23T06:04:10.775Z,100952.19
2022-10-23T06:06:37.743Z,100930.66
2022-10-23T06:09:04.981Z,100940.91
2022-10-23T06:11:35.015Z,100942.56
2022-10-23T06:14:01.863Z,100940.00
2022-10-23T06:16:28.921Z,100941.66
2022-10-23T06:18:57.459Z,100940.00
2022-10-23T06:21:24.695Z,100936.56
2022-10-23T06:23:51.799Z,100931.44
2022-10-23T06:26:19.773Z,100930.53
2022-10-23T06:28:46.794Z,100921.03
2022-10-23T06:31:15.998Z,100924.53
2022-10-23T06:33:42.908Z,100921.03
2022-10-23T06:36:10.725Z,100927.22
2022-10-23T06:38:40.634Z,100923.03
2022-10-23T06:41:13.042Z,100929.81
2022-10-23T06:43:40.081Z,100928.16
2022-10-23T06:46:07.738Z,100926.25
2022-10-23T06:48:34.669Z,100925.38
2022-10-23T06:51:06.735Z,100923.56
2022-10-23T06:53:35.956Z,100909.78
2022-10-23T06:56:04.591Z,100909.78
2022-10-23T06:58:32.130Z,100909.69
2022-10-23T07:01:05.090Z,100907.09
2022-10-23T07:03:32.562Z,100914.81
2022-10-23T07:06:04.371Z,100914.13
2022-10-23T07:08:31.806Z,100914.97
2022-10-23T07:11:07.329Z,100914.91
2022-10-23T07:13:36.026Z,100910.53
2022-10-23T07:16:18.290Z,100910.63
2022-10-23T07:18:48.338Z,100917.47
2022-10-23T07:21:15.404Z,100900.22
2022-10-23T07:23:42.325Z,100905.41
2022-10-23T07:26:12.111Z,100914.81
2022-10-23T07:28:39.078Z,100901.88
2022-10-23T07:31:06.002Z,100897.56
2022-10-23T07:33:33.052Z,100892.41
2022-10-23T07:36:00.093Z,100891.47
2022-10-23T07:38:28.155Z,100889.66
2022-10-23T07:40:57.881Z,100887.88
2022-10-23T07:43:26.103Z,100892.16
2022-10-23T07:45:54.057Z,100893.00
2022-10-23T07:48:21.785Z,100886.03
2022-10-23T07:50:48.694Z,100884.34
2022-10-23T07:53:21.514Z,100894.66
2022-10-23T07:56:37.883Z,100892.81
2022-10-23T07:59:05.053Z,100890.22
2022-10-23T08:01:35.061Z,100867.72
2022-10-23T08:04:02.178Z,100874.44
2022-10-23T08:06:30.067Z,100865.72
2022-10-23T08:08:59.884Z,100874.25
2022-10-23T08:11:35.188Z,100870.66
2022-10-23T08:14:04.684Z,100867.06
2022-10-23T08:16:37.562Z,100872.09
2022-10-23T08:19:06.838Z,100868.53
2022-10-23T08:21:33.853Z,100876.09
2022-10-23T08:24:01.497Z,100865.72
2022-10-23T08:26:31.592Z,100875.75
2022-10-23T08:28:59.801Z,100874.78
2022-10-23T08:31:27.029Z,100870.34
2022-10-23T08:33:53.918Z,100870.22
2022-10-23T08:36:25.603Z,100869.97
2022-10-23T08:38:54.779Z,100865.47
2022-10-23T08:41:30.993Z,100859.28
2022-10-23T08:44:13.433Z,100863.47
2022-10-23T08:46:45.799Z,100865.03
2022-10-23T08:49:30.854Z,100862.25
2022-10-23T08:52:02.593Z,100850.03
2022-10-23T08:55:01.604Z,100856.63
2022-10-23T08:57:38.780Z,100866.00
2022-10-23T09:00:14.509Z,100853.66
2022-10-23T09:02:50.266Z,100843.13
2022-10-23T09:05:47.035Z,100837.66
2022-10-23T09:08:43.261Z,100821.13
2022-10-23T09:11:30.797Z,100814.78
2022-10-23T09:14:24.421Z,100810.38
2022-10-23T09:17:20.141Z,100805.03
2022-10-23T09:19:47.046Z,100793.63
2022-10-23T09:22:14.191Z,100795.22
2022-10-23T09:24:43.432Z,100776.16
2022-10-23T09:27:16.985Z,100783.72
2022-10-23T09:29:49.799Z,100786.16
2022-10-23T09:32:16.782Z,100789.47
2022-10-23T09:34:53.297Z,100776.41
2022-10-23T09:37:24.617Z,100779.75
2022-10-23T09:40:02.838Z,100781.41
2022-10-23T09:42:30.105Z,100777.88
2022-10-23T09:44:57.586Z,100780.28
2022-10-23T09:47:26.121Z,100786.19
2022-10-23T09:49:55.521Z,100774.00
2022-10-23T09:52:48.575Z,100772.03
2022-10-23T09:55:26.143Z,100765.81
2022-10-23T09:58:00.559Z,100763.00
2022-10-23T10:00:28.078Z,100758.59
2022-10-23T10:03:06.596Z,100745.34
2022-10-23T10:05:38.873Z,100750.31
2022-10-23T10:08:28.962Z,100748.50
2022-10-23T10:11:12.613Z,100744.09
2022-10-23T10:13:48.639Z,100741.28
2022-10-23T10:16:33.710Z,100742.91
2022-10-23T10:19:13.683Z,100728.91
2022-10-23T10:21:58.933Z,100735.75
2022-10-23T10:24:54.235Z,100743.38
2022-10-23T10:27:49.801Z,100735.38
2022-10-23T10:30:22.610Z,100737.91
2022-10-23T10:33:05.372Z,100730.81
2022-10-23T10:35:55.029Z,100725.44
2022-10-23T10:38:37.233Z,100714.03
2022-10-23T10:41:29.972Z,100700.97
2022-10-23T10:44:14.975Z,100679.94
2022-10-23T10:46:44.671Z,100692.03
2022-10-23T10:49:35.598Z,100688.50
2022-10-23T10:52:14.575Z,100664.16
2022-10-23T10:54:53.603Z,100673.34
2022-10-23T10:57:38.381Z,100670.63
2022-10-23T11:00:14.783Z,100663.56
2022-10-23T11:02:51.926Z,100660.06
2022-10-23T11:05:55.703Z,100661.56
2022-10-23T11:08:50.005Z,100639.81
2022-10-23T11:11:32.135Z,100636.34
2022-10-23T11:13:59.380Z,100637.00
2022-10-23T11:16:29.066Z,100636.06
2022-10-23T11:19:26.759Z,100632.47
2022-10-23T11:22:07.142Z,100618.44
2022-10-23T11:25:04.680Z,100627.91
2022-10-23T11:27:58.149Z,100615.69
2022-10-23T11:30:54.958Z,100602.69
2022-10-23T11:33:44.870Z,100590.38
2022-10-23T11:36:17.438Z,100604.94
2022-10-23T11:38:47.533Z,100612.00
2022-10-23T11:41:28.519Z,100607.47
2022-10-23T11:44:01.568Z,100623.03
2022-10-23T11:46:38.259Z,100594.34
2022-10-23T11:49:19.772Z,100601.13
2022-10-23T11:51:46.725Z,100595.06
2022-10-23T11:54:13.629Z,100600.22
2022-10-23T11:57:10.590Z,100606.16
2022-10-23T11:59:49.815Z,100594.78
2022-10-23T12:02:32.153Z,100584.19
2022-10-23T12:05:07.325Z,100584.97
2022-10-23T12:07:40.063Z,100589.13
2022-10-23T12:10:19.680Z,100589.06
2022-10-23T12:13:06.644Z,100572.44
2022-10-23T12:15:36.819Z,100572.31
2022-10-23T12:18:18.093Z,100570.38
2022-10-23T12:20:48.467Z,100566.78
2022-10-23T12:23:21.384Z,100563.25
2022-10-23T12:26:12.909Z,100567.47
2022-10-23T12:29:28.080Z,100558.56
2022-10-23T12:31:54.969Z,100543.81
2022-10-23T12:35:12.803Z,100545.34
2022-10-23T12:38:11.534Z,100547.94
2022-10-23T12:40:39.502Z,100547.91
2022-10-23T12:43:26.280Z,100541.72
2022-10-23T12:46:16.952Z,100530.28
2022-10-23T12:48:54.127Z,100524.91
2022-10-23T12:51:24.762Z,100517.97
2022-10-23T12:53:51.868Z,100514.28
2022-10-23T12:56:19.444Z,100512.50
2022-10-23T12:58:51.296Z,100512.44
2022-10-23T13:01:33.560Z,100507.22
2022-10-23T13:04:35.182Z,100502.75
2022-10-23T13:07:04.224Z,100493.13
2022-10-23T13:09:40.234Z,100491.38
2022-10-23T13:12:08.982Z,100478.44
2022-10-23T13:14:43.699Z,100482.75
2022-10-23T13:17:12.220Z,100485.16
2022-10-23T13:19:39.188Z,100477.25
2022-10-23T13:22:19.703Z,100467.78
2022-10-23T13:24:47.105Z,100462.31
2022-10-23T13:27:33.167Z,100460.53
2022-10-23T13:30:00.572Z,100450.94
2022-10-23T13:32:30.385Z,100448.31
2022-10-23T13:35:17.002Z,100446.63
2022-10-23T13:37:51.244Z,100435.28
2022-10-23T13:40:27.827Z,100439.53
2022-10-23T13:42:55.998Z,100435.13
2022-10-23T13:45:26.225Z,100434.13
2022-10-23T13:47:53.461Z,100416.81
2022-10-23T13:50:20.583Z,100421.00
2022-10-23T13:52:47.594Z,100422.75
2022-10-23T13:55:22.426Z,100410.59
2022-10-23T13:57:49.483Z,100418.44
2022-10-23T14:00:17.013Z,100401.22
2022-10-23T14:02:44.773Z,100409.75
2022-10-23T14:05:12.429Z,100407.91
2022-10-23T14:07:39.361Z,100411.38
2022-10-23T14:10:06.885Z,100400.28
2022-10-23T14:12:44.520Z,100407.06
2022-10-23T14:15:12.295Z,100403.56
2022-10-23T14:17:39.228Z,100398.44
2022-10-23T14:20:06.705Z,100400.13
2022-10-23T14:22:33.735Z,100393.22
2022-10-23T14:25:04.089Z,100394.00
2022-10-23T14:27:31.337Z,100381.13
2022-10-23T14:29:59.395Z,100386.19
2022-10-23T14:32:26.281Z,100386.19
2022-10-23T14:34:55.517Z,100380.91
2022-10-23T14:37:22.404Z,100375.84
2022-10-23T14:39:50.354Z,100365.38
2022-10-23T14:42:17.670Z,100370.50
2022-10-23T14:44:45.023Z,100360.13
2022-10-23T14:47:12.099Z,100363.50
2022-10-23T14:49:40.358Z,100368.72
2022-10-23T14:52:08.332Z,100367.03
2022-10-23T14:54:36.474Z,100365.38
2022-10-23T14:57:04.331Z,100371.34
2022-10-23T14:59:31.393Z,100400.97
2022-10-23T15:01:58.403Z,100414.13
2022-10-23T15:04:25.363Z,100448.94
2022-10-23T15:06:53.179Z,100442.81
2022-10-23T15:09:21.654Z,100422.75
2022-10-23T15:11:49.739Z,100406.19
2022-10-23T15:14:17.935Z,100420.31
2022-10-23T15:16:45.811Z,100413.28
2022-10-23T15:19:18.425Z,100424.50
2022-10-23T15:21:47.398Z,100436.69
2022-10-23T15:24:15.918Z,100445.38
2022-10-23T15:26:46.021Z,100446.22
2022-10-23T15:29:14.958Z,100436.75
2022-10-23T15:31:45.368Z,100429.91
2022-10-23T15:34:18.960Z,100428.91
2022-10-23T15:36:47.104Z,100423.66
2022-10-23T15:39:17.055Z,100428.75
2022-10-23T15:41:44.664Z,100433.91
2022-10-23T15:44:14.663Z,100416.50
2022-10-23T15:46:41.743Z,100406.13
2022-10-23T15:49:08.761Z,100421.16
2022-10-23T15:51:36.999Z,100422.00
2022-10-23T15:54:06.052Z,100420.31
2022-10-23T15:56:34.216Z,100437.69
2022-10-23T15:59:01.413Z,100437.06
2022-10-23T16:01:28.627Z,100430.94
2022-10-23T16:03:55.722Z,100437.91
2022-10-23T16:06:22.938Z,100430.22
2022-10-23T16:08:50.090Z,100428.59
2022-10-23T16:11:23.855Z,100445.06
2022-10-23T16:13:51.189Z,100434.66
2022-10-23T16:16:18.578Z,100438.44
2022-10-23T16:18:45.738Z,100431.28
2022-10-23T16:21:27.409Z,100430.50
2022-10-23T16:23:56.687Z,100423.56
2022-10-23T16:26:23.942Z,100414.19
2022-10-23T16:28:57.744Z,100418.59
2022-10-23T16:31:26.394Z,100424.81
2022-10-23T16:33:54.058Z,100414.41
2022-10-23T16:36:21.268Z,100417.03
2022-10-23T16:38:48.162Z,100417.19
2022-10-23T16:41:15.118Z,100458.34
2022-10-23T16:43:42.022Z,100495.88
2022-10-23T16:46:18.229Z,100454.81
2022-10-23T16:48:45.274Z,100434.97
2022-10-23T16:51:18.833Z,100422.72
2022-10-23T16:53:46.922Z,100410.69
2022-10-23T16:56:15.809Z,100349.81
2022-10-23T16:58:44.208Z,100343.06
2022-10-23T17:01:16.132Z,100322.63
2022-10-23T17:03:48.139Z,100341.91
2022-10-23T17:06:18.190Z,100320.41
2022-10-23T17:08:45.779Z,100331.00
2022-10-23T17:11:37.163Z,100355.53
2022-10-23T17:14:11.339Z,100374.88
2022-10-23T17:16:41.094Z,100387.88
2022-10-23T17:19:20.906Z,100385.41
2022-10-23T17:21:55.879Z,100402.19
2022-10-23T17:24:23.497Z,100384.72
2022-10-23T17:26:50.733Z,100377.72
2022-10-23T17:29:18.381Z,100361.13
2022-10-23T17:31:48.301Z,100345.44
2022-10-23T17:34:21.532Z,100355.00
2022-10-23T17:36:51.452Z,100370.88
2022-10-23T17:39:21.898Z,100400.41
2022-10-23T17:41:48.832Z,100395.31
2022-10-23T17:44:16.234Z,100394.41
2022-10-23T17:46:43.590Z,100408.31
2022-10-23T17:49:11.461Z,100410.06
2022-10-23T17:51:41.705Z,100395.47
2022-10-23T17:54:11.897Z,100404.84
2022-10-23T17:56:40.701Z,100411.94
2022-10-23T17:59:11.822Z,100425.91
2022-10-23T18:01:39.749Z,100417.22
2022-10-23T18:04:07.927Z,100407.75
2022-10-23T18:06:43.647Z,100400.69
2022-10-23T18:09:10.983Z,100393.66
2022-10-23T18:11:43.925Z,100392.06
2022-10-23T18:14:14.519Z,100381.72
2022-10-23T18:16:41.840Z,100364.28
2022-10-23T18:19:08.802Z,100370.47
2022-10-23T18:21:36.434Z,100373.88
2022-10-23T18:24:03.708Z,100367.88
2022-10-23T18:26:35.012Z,100369.78
2022-10-23T18:29:07.089Z,100353.56
2022-10-23T18:31:35.481Z,100349.19
2022-10-23T18:34:07.573Z,100358.81
2022-10-23T18:36:39.679Z,100345.16
2022-10-23T18:39:08.873Z,100364.34
2022-10-23T18:41:39.179Z,100359.25
2022-10-23T18:44:06.798Z,100359.34
2022-10-23T18:46:34.391Z,100362.03
2022-10-23T18:49:01.753Z,100360.25
2022-10-23T18:51:31.259Z,100364.72
2022-10-23T18:54:01.720Z,100358.66
2022-10-23T18:56:28.964Z,100362.09
2022-10-23T18:59:01.846Z,100351.72
2022-10-23T19:01:30.190Z,100365.47
2022-10-23T19:03:58.735Z,100362.81
2022-10-23T19:06:26.095Z,100349.94
2022-10-23T19:08:53.339Z,100334.38
2022-10-23T19:11:22.274Z,100342.19
2022-10-23T19:13:49.237Z,100335.34
2022-10-23T19:16:35.377Z,100342.06
2022-10-23T19:19:21.631Z,100318.84
2022-10-23T19:21:49.707Z,100341.22
2022-10-23T19:24:22.562Z,100336.28
2022-10-23T19:26:50.043Z,100342.19
2022-10-23T19:29:20.551Z,100333.81
2022-10-23T19:31:51.730Z,100343.41
2022-10-23T19:34:20.681Z,100340.81
2022-10-23T19:36:48.401Z,100343.47
2022-10-23T19:39:16.294Z,100345.25
2022-10-23T19:41:43.721Z,100351.31
2022-10-23T19:44:10.844Z,100360.06
2022-10-23T19:46:38.118Z,100352.44
2022-10-23T19:49:05.930Z,100367.13
2022-10-23T19:51:32.965Z,100359.38
2022-10-23T19:54:00.335Z,100352.53
2022-10-23T19:56:27.620Z,100352.53
2022-10-23T19:58:54.678Z,100322.56
2022-10-23T20:01:24.385Z,100350.91
2022-10-23T20:03:52.205Z,100348.38
2022-10-23T20:06:23.112Z,100353.66
2022-10-23T20:08:50.653Z,100355.44
2022-10-23T20:11:26.936Z,100350.13
2022-10-23T20:13:54.462Z,100362.41
2022-10-23T20:16:33.458Z,100372.78
2022-10-23T20:19:03.023Z,100409.47
2022-10-23T20:21:30.474Z,100435.72
2022-10-23T20:23:58.454Z,100468.00
2022-10-23T20:26:25.380Z,100471.34
2022-10-23T20:28:55.223Z,100488.00
2022-10-23T20:31:25.293Z,100502.88
2022-10-23T20:33:52.892Z,100501.81
2022-10-23T20:36:29.100Z,100501.81
2022-10-23T20:38:56.761Z,100491.31
2022-10-23T20:41:33.777Z,100465.34
2022-10-23T20:44:00.744Z,100474.69
2022-10-23T20:46:29.670Z,100443.47
2022-10-23T20:48:56.530Z,100455.34
2022-10-23T20:51:24.648Z,100451.78
2022-10-23T20:53:53.243Z,100444.84
2022-10-23T20:56:31.023Z,100444.91
2022-10-23T20:59:11.557Z,100444.91
2022-10-23T21:01:43.448Z,100440.50
2022-10-23T21:04:13.208Z,100440.50
2022-10-23T21:06:57.533Z,100434.53
2022-10-23T21:09:29.437Z,100432.69
2022-10-23T21:11:56.368Z,100437.16
2022-10-23T21:14:23.155Z,100444.91
2022-10-23T21:16:50.063Z,100438.81
2022-10-23T21:19:16.929Z,100449.28
2022-10-23T21:21:44.498Z,100451.94
2022-10-23T21:24:14.919Z,100453.72
2022-10-23T21:26:42.266Z,100452.88
2022-10-23T21:29:24.513Z,100449.47
2022-10-23T21:32:11.328Z,100438.25
2022-10-23T21:34:41.764Z,100434.88
2022-10-23T21:37:13.939Z,100451.22
2022-10-23T21:39:49.036Z,100458.22
2022-10-23T21:42:16.102Z,100447.88
2022-10-23T21:45:03.224Z,100443.53
2022-10-23T21:47:30.888Z,100439.28
2022-10-23T21:50:03.499Z,100449.81
2022-10-23T21:52:30.453Z,100448.19
2022-10-23T21:55:02.851Z,100439.72
2022-10-23T21:57:36.898Z,100450.09
2022-10-23T22:00:12.650Z,100448.47
2022-10-23T22:02:50.506Z,100452.75
2022-10-23T22:05:17.468Z,100450.22
2022-10-23T22:07:47.137Z,100448.59
2022-10-23T22:10:14.464Z,100445.19
2022-10-23T22:12:41.720Z,100449.56
2022-10-23T22:15:09.019Z,100446.13
2022-10-23T22:17:35.918Z,100454.94
2022-10-23T22:20:02.800Z,100444.56
2022-10-23T22:22:29.556Z,100439.34
2022-10-23T22:24:56.480Z,100436.88
2022-10-23T22:27:23.262Z,100453.28
2022-10-23T22:29:50.147Z,100443.88
2022-10-23T22:32:17.029Z,100446.59
2022-10-23T22:34:59.225Z,100444.97
2022-10-23T22:37:26.414Z,100440.72
2022-10-23T22:39:53.318Z,100436.50
2022-10-23T22:42:20.661Z,100433.03
2022-10-23T22:44:47.491Z,100424.38
2022-10-23T22:47:14.265Z,100434.81
2022-10-23T22:49:41.129Z,100431.28
2022-10-23T22:52:07.892Z,100435.72
2022-10-23T22:54:34.830Z,100433.03
2022-10-23T22:57:01.802Z,100432.34
2022-10-23T22:59:28.661Z,100427.03
2022-10-23T23:01:55.681Z,100433.97
2022-10-23T23:04:38.995Z,100426.28
2022-10-23T23:07:08.666Z,100438.41
2022-10-23T23:09:37.852Z,100431.50
2022-10-23T23:12:05.765Z,100429.72
2022-10-23T23:14:32.619Z,100433.25
2022-10-23T23:16:59.443Z,100430.69
2022-10-23T23:19:26.694Z,100427.31
2022-10-23T23:21:58.275Z,100427.31
2022-10-23T23:24:25.899Z,100430.88
2022-10-23T23:26:53.265Z,100425.00
2022-10-23T23:29:21.469Z,100428.41
2022-10-23T23:31:53.957Z,100425.00
2022-10-23T23:34:24.279Z,100432.03
2022-10-23T23:36:51.284Z,100433.88
2022-10-23T23:39:24.775Z,100440.84
2022-10-23T23:41:54.242Z,100435.63
2022-10-23T23:44:24.089Z,100427.03
2022-10-23T23:46:55.527Z,100426.19
2022-10-23T23:49:46.623Z,100409.63
2022-10-23T23:52:14.870Z,100421.88
2022-10-23T23:54:45.961Z,100421.88
2022-10-23T23:57:20.006Z,100398.47
2022-10-23T23:59:53.272Z,100396.84
